logo
Search for airport 
image banner adimage banner adimage banner ad
image banner ad

FAOL - Othawa

Located in Otthawa, South Africa

ICAO - FAOL, IATA -

Data provided by Airmate  

General information

Coordinates: S24°45'33" E31°24'20"
Elevation is 1253 feet MSL.
 
View others Airports in Limpopo

Operational data

Special qualification required
Current time UTC:
Current local time:
METAR: FAKN 181000Z 24002KT 9999 FEW020 27/14 Q1025 NOSIG
TAF: TAF FAKN 180900Z 1810/1818 VRB03KT CAVOK TX27/1812Z TN19/1818Z
View NOTAMs / SUP AIP / TFR affecting this airport [VIEW]
Communications frequencies: [VIEW]

Runways:

RWY identifierQFULength (ft)Width (ft)SurfaceLDA (ft)
02145°426549SAND
20325°426549SAND

Airport contact information

Address: Otthawa South Africa

Satellite view of FAOL